createdAt,value
2018-08-19T00:00:58.519Z,20.10
2018-08-19T00:03:26.674Z,20.10
2018-08-19T00:05:54.866Z,20.10
2018-08-19T00:08:23.062Z,20.10
2018-08-19T00:11:08.019Z,20.10
2018-08-19T00:13:37.137Z,20.10
2018-08-19T00:16:05.565Z,20.10
2018-08-19T00:18:35.196Z,20.10
2018-08-19T00:21:06.833Z,20.00
2018-08-19T00:23:40.495Z,20.00
2018-08-19T00:26:08.675Z,20.00
2018-08-19T00:28:36.901Z,20.00
2018-08-19T00:31:05.509Z,20.00
2018-08-19T00:33:34.065Z,20.00
2018-08-19T00:36:07.996Z,19.90
2018-08-19T00:38:36.148Z,19.90
2018-08-19T00:41:04.319Z,19.90
2018-08-19T00:43:32.487Z,19.90
2018-08-19T00:46:10.814Z,19.90
2018-08-19T00:48:38.988Z,19.90
2018-08-19T00:51:07.177Z,19.90
2018-08-19T00:53:35.350Z,19.90
2018-08-19T00:56:03.523Z,19.90
2018-08-19T00:58:31.679Z,19.80
2018-08-19T01:00:59.851Z,19.80
2018-08-19T01:03:29.022Z,19.70
2018-08-19T01:05:57.173Z,19.70
2018-08-19T01:08:25.346Z,19.70
2018-08-19T01:10:53.518Z,19.70
2018-08-19T01:13:21.682Z,19.60
2018-08-19T01:15:49.843Z,19.60
2018-08-19T01:18:18.019Z,19.60
2018-08-19T01:20:46.208Z,19.50
2018-08-19T01:23:14.375Z,19.60
2018-08-19T01:25:42.546Z,19.50
2018-08-19T01:28:10.733Z,19.50
2018-08-19T01:30:38.899Z,19.50
2018-08-19T01:33:07.058Z,19.50
2018-08-19T01:35:40.098Z,19.50
2018-08-19T01:38:08.275Z,19.50
2018-08-19T01:40:36.439Z,19.50
2018-08-19T01:43:06.052Z,19.50
2018-08-19T01:45:34.621Z,19.50
2018-08-19T01:48:02.810Z,19.40
2018-08-19T01:50:30.987Z,19.40
2018-08-19T01:52:59.155Z,19.40
2018-08-19T01:55:28.047Z,19.40
2018-08-19T01:57:56.284Z,19.40
2018-08-19T02:00:24.440Z,19.40
2018-08-19T02:03:00.276Z,19.40
2018-08-19T02:05:28.428Z,19.40
2018-08-19T02:07:58.449Z,19.30
2018-08-19T02:10:27.315Z,19.40
2018-08-19T02:12:56.449Z,19.40
2018-08-19T02:15:25.849Z,19.40
2018-08-19T02:17:56.387Z,19.40
2018-08-19T02:20:25.465Z,19.40
2018-08-19T02:23:12.542Z,19.40
2018-08-19T02:25:42.787Z,19.40
2018-08-19T02:28:11.495Z,19.40
2018-08-19T02:30:46.643Z,19.40
2018-08-19T02:33:14.813Z,19.40
2018-08-19T02:35:44.286Z,19.40
2018-08-19T02:38:12.481Z,19.40
2018-08-19T02:40:40.663Z,19.40
2018-08-19T02:43:08.958Z,19.40
2018-08-19T02:45:37.114Z,19.40
2018-08-19T02:48:05.570Z,19.40
2018-08-19T02:50:33.739Z,19.40
2018-08-19T02:53:01.915Z,19.30
2018-08-19T02:55:30.053Z,19.30
2018-08-19T02:58:03.784Z,19.30
2018-08-19T03:00:31.928Z,19.30
2018-08-19T03:03:00.057Z,19.30
2018-08-19T03:05:28.189Z,19.30
2018-08-19T03:07:56.330Z,19.30
2018-08-19T03:10:24.463Z,19.30
2018-08-19T03:12:52.610Z,19.30
2018-08-19T03:15:20.738Z,19.30
2018-08-19T03:17:49.037Z,19.20
2018-08-19T03:20:17.193Z,19.30
2018-08-19T03:22:45.339Z,19.30
2018-08-19T03:25:13.486Z,19.30
2018-08-19T03:27:41.634Z,19.20
2018-08-19T03:30:10.866Z,19.20
2018-08-19T03:33:13.591Z,19.20
2018-08-19T03:35:41.721Z,19.20
2018-08-19T03:38:13.472Z,19.20
2018-08-19T03:40:41.614Z,19.10
2018-08-19T03:43:10.537Z,19.10
2018-08-19T03:45:38.679Z,19.10
2018-08-19T03:48:06.830Z,19.10
2018-08-19T03:50:37.138Z,19.10
2018-08-19T03:53:05.618Z,19.10
2018-08-19T03:55:35.098Z,19.10
2018-08-19T03:58:05.445Z,19.10
2018-08-19T04:00:34.847Z,19.10
2018-08-19T04:03:14.669Z,19.10
2018-08-19T04:05:45.497Z,19.10
2018-08-19T04:08:14.664Z,19.10
2018-08-19T04:10:44.030Z,19.10
2018-08-19T04:13:28.176Z,19.10
2018-08-19T04:15:57.669Z,19.10
2018-08-19T04:18:31.127Z,19.10
2018-08-19T04:21:00.998Z,19.10
2018-08-19T04:23:29.746Z,19.10
2018-08-19T04:25:57.813Z,19.10
2018-08-19T04:28:25.992Z,19.10
2018-08-19T04:30:55.321Z,19.10
2018-08-19T04:33:28.224Z,19.10
2018-08-19T04:35:56.384Z,19.10
2018-08-19T04:38:25.897Z,19.10
2018-08-19T04:40:54.049Z,19.10
2018-08-19T04:43:29.566Z,19.10
2018-08-19T04:45:57.722Z,19.10
2018-08-19T04:48:26.993Z,19.00
2018-08-19T04:50:56.188Z,19.00
2018-08-19T04:53:24.405Z,19.00
2018-08-19T04:55:53.239Z,19.00
2018-08-19T04:58:21.399Z,19.00
2018-08-19T05:00:49.577Z,19.00
2018-08-19T05:03:17.748Z,19.00
2018-08-19T05:05:45.912Z,19.00
2018-08-19T05:08:14.278Z,18.90
2018-08-19T05:10:42.798Z,19.00
2018-08-19T05:13:11.694Z,18.90
2018-08-19T05:15:40.782Z,19.00
2018-08-19T05:18:09.271Z,18.90
2018-08-19T05:20:37.514Z,18.90
2018-08-19T05:23:06.118Z,18.90
2018-08-19T05:25:40.042Z,18.90
2018-08-19T05:28:08.213Z,18.90
2018-08-19T05:30:36.706Z,18.90
2018-08-19T05:33:05.679Z,18.90
2018-08-19T05:35:34.673Z,18.90
2018-08-19T05:38:04.107Z,18.90
2018-08-19T05:40:32.804Z,18.90
2018-08-19T05:43:00.956Z,18.90
2018-08-19T05:45:29.118Z,18.90
2018-08-19T05:48:08.518Z,19.00
2018-08-19T05:50:36.702Z,19.00
2018-08-19T05:53:04.877Z,19.00
2018-08-19T05:55:33.067Z,19.00
2018-08-19T05:58:01.217Z,19.00
2018-08-19T06:00:29.379Z,19.10
2018-08-19T06:02:58.814Z,19.10
2018-08-19T06:05:27.073Z,19.10
2018-08-19T06:08:14.976Z,19.20
2018-08-19T06:10:43.154Z,19.20
2018-08-19T06:13:11.999Z,19.20
2018-08-19T06:15:40.239Z,19.20
2018-08-19T06:18:08.810Z,19.30
2018-08-19T06:20:37.022Z,19.30
2018-08-19T06:23:05.202Z,19.30
2018-08-19T06:25:33.394Z,19.30
2018-08-19T06:28:01.539Z,19.30
2018-08-19T06:30:29.706Z,19.40
2018-08-19T06:32:57.942Z,19.40
2018-08-19T06:35:26.102Z,19.40
2018-08-19T06:37:54.261Z,19.50
2018-08-19T06:40:23.515Z,19.50
2018-08-19T06:42:51.706Z,19.50
2018-08-19T06:45:19.898Z,19.60
2018-08-19T06:47:48.159Z,19.60
2018-08-19T06:50:24.948Z,19.60
2018-08-19T06:52:53.645Z,19.70
2018-08-19T06:55:21.905Z,19.70
2018-08-19T06:57:50.062Z,19.80
2018-08-19T07:00:23.648Z,19.80
2018-08-19T07:02:51.829Z,19.80
2018-08-19T07:05:20.241Z,19.90
2018-08-19T07:07:48.378Z,20.00
2018-08-19T07:10:22.921Z,20.00
2018-08-19T07:12:55.293Z,20.10
2018-08-19T07:15:23.521Z,20.10
2018-08-19T07:17:51.587Z,20.20
2018-08-19T07:20:19.719Z,20.30
2018-08-19T07:22:47.851Z,20.30
2018-08-19T07:25:15.992Z,20.40
2018-08-19T07:27:44.124Z,20.40
2018-08-19T07:30:12.261Z,20.50
2018-08-19T07:32:40.394Z,20.50
2018-08-19T07:35:08.561Z,20.60
2018-08-19T07:37:36.691Z,20.60
2018-08-19T07:40:05.470Z,20.70
2018-08-19T07:42:33.605Z,20.80
2018-08-19T07:45:01.758Z,20.90
2018-08-19T07:47:29.900Z,20.90
2018-08-19T07:49:58.072Z,21.00
2018-08-19T07:52:26.222Z,21.00
2018-08-19T07:54:54.357Z,21.10
2018-08-19T07:57:26.410Z,21.10
2018-08-19T07:59:54.561Z,21.20
2018-08-19T08:02:25.497Z,21.30
2018-08-19T08:04:53.658Z,21.30
2018-08-19T08:07:21.822Z,21.40
2018-08-19T08:09:50.046Z,21.40
2018-08-19T08:12:18.206Z,21.50
2018-08-19T08:14:52.238Z,21.50
2018-08-19T08:17:21.083Z,21.50
2018-08-19T08:19:54.622Z,21.60
2018-08-19T08:22:22.782Z,21.60
2018-08-19T08:24:50.943Z,21.70
2018-08-19T08:27:19.113Z,21.70
2018-08-19T08:29:47.268Z,21.70
2018-08-19T08:32:15.425Z,21.80
2018-08-19T08:34:43.581Z,21.80
2018-08-19T08:37:12.382Z,21.80
2018-08-19T08:39:40.546Z,21.90
2018-08-19T08:42:08.717Z,21.90
2018-08-19T08:44:36.897Z,21.90
2018-08-19T08:47:08.720Z,21.90
2018-08-19T08:49:42.298Z,21.90
2018-08-19T08:52:16.218Z,21.90
2018-08-19T08:54:49.990Z,22.00
2018-08-19T08:57:19.114Z,22.00
2018-08-19T08:59:47.299Z,22.10
2018-08-19T09:02:15.480Z,22.10
2018-08-19T09:04:43.646Z,22.20
2018-08-19T09:07:11.860Z,22.20
2018-08-19T09:09:41.542Z,22.20
2018-08-19T09:12:09.851Z,22.20
2018-08-19T09:14:37.993Z,22.30
2018-08-19T09:17:06.253Z,22.30
2018-08-19T09:19:34.426Z,22.30
2018-08-19T09:22:02.597Z,22.40
2018-08-19T09:24:30.772Z,22.40
2018-08-19T09:26:58.934Z,22.40
2018-08-19T09:29:27.143Z,22.40
2018-08-19T09:31:55.311Z,22.40
2018-08-19T09:34:24.095Z,22.50
2018-08-19T09:36:52.254Z,22.50
2018-08-19T09:39:20.412Z,22.50
2018-08-19T09:41:48.902Z,22.60
2018-08-19T09:44:17.046Z,22.60
2018-08-19T09:46:45.221Z,22.60
2018-08-19T09:49:13.430Z,22.60
2018-08-19T09:51:41.599Z,22.70
2018-08-19T09:54:09.810Z,22.70
2018-08-19T09:56:39.797Z,22.70
2018-08-19T09:59:08.085Z,22.80
2018-08-19T10:01:40.278Z,22.80
2018-08-19T10:04:13.918Z,22.80
2018-08-19T10:06:42.237Z,22.80
2018-08-19T10:09:10.381Z,22.80
2018-08-19T10:11:39.194Z,22.80
2018-08-19T10:14:07.358Z,22.90
2018-08-19T10:16:42.709Z,22.90
2018-08-19T10:19:11.293Z,22.90
2018-08-19T10:21:39.455Z,23.00
2018-08-19T10:24:26.791Z,23.00
2018-08-19T10:26:55.132Z,23.00
2018-08-19T10:29:23.330Z,23.10
2018-08-19T10:31:58.182Z,23.10
2018-08-19T10:34:30.535Z,23.20
2018-08-19T10:36:59.351Z,23.30
2018-08-19T10:39:27.598Z,23.30
2018-08-19T10:42:28.765Z,23.40
2018-08-19T10:44:56.983Z,23.40
2018-08-19T10:47:25.149Z,23.50
2018-08-19T10:49:59.243Z,23.50
2018-08-19T10:52:28.727Z,23.60
2018-08-19T10:54:58.123Z,23.70
2018-08-19T10:57:26.283Z,23.70
2018-08-19T10:59:56.870Z,23.80
2018-08-19T11:02:25.078Z,23.80
2018-08-19T11:04:57.070Z,23.90
2018-08-19T11:07:25.246Z,23.90
2018-08-19T11:10:10.005Z,24.00
2018-08-19T11:12:38.197Z,24.00
2018-08-19T11:15:16.360Z,24.10
2018-08-19T11:17:44.613Z,24.10
2018-08-19T11:20:12.767Z,24.20
2018-08-19T11:22:41.176Z,24.20
2018-08-19T11:25:09.318Z,24.20
2018-08-19T11:27:37.564Z,24.30
2018-08-19T11:30:05.679Z,24.30
2018-08-19T11:32:35.562Z,24.40
2018-08-19T11:35:04.405Z,24.40
2018-08-19T11:37:32.585Z,24.40
2018-08-19T11:40:00.783Z,24.40
2018-08-19T11:42:29.247Z,24.50
2018-08-19T11:44:57.411Z,24.50
2018-08-19T11:47:25.574Z,24.50
2018-08-19T11:49:53.734Z,24.50
2018-08-19T11:52:21.876Z,24.50
2018-08-19T11:54:50.033Z,24.60
2018-08-19T11:57:18.171Z,24.60
2018-08-19T11:59:46.566Z,24.60
2018-08-19T12:02:18.038Z,24.60
2018-08-19T12:04:46.582Z,24.60
2018-08-19T12:07:15.006Z,24.70
2018-08-19T12:09:45.223Z,24.70
2018-08-19T12:12:13.257Z,24.70
2018-08-19T12:14:41.415Z,24.70
2018-08-19T12:17:10.957Z,24.70
2018-08-19T12:19:40.161Z,24.70
2018-08-19T12:22:08.806Z,24.70
2018-08-19T12:24:41.069Z,24.70
2018-08-19T12:27:10.484Z,24.70
2018-08-19T12:29:39.821Z,24.70
2018-08-19T12:32:14.480Z,24.80
2018-08-19T12:34:44.836Z,24.80
2018-08-19T12:37:13.936Z,24.80
2018-08-19T12:39:42.014Z,24.80
2018-08-19T12:42:10.193Z,24.80
2018-08-19T12:44:38.715Z,24.80
2018-08-19T12:47:15.499Z,24.80
2018-08-19T12:49:45.105Z,24.90
2018-08-19T12:52:17.258Z,24.90
2018-08-19T12:54:46.864Z,24.90
2018-08-19T12:57:15.294Z,24.90
2018-08-19T12:59:43.423Z,24.90
2018-08-19T13:02:11.565Z,24.90
2018-08-19T13:04:39.715Z,24.90
2018-08-19T13:07:09.290Z,24.90
2018-08-19T13:09:37.518Z,24.90
2018-08-19T13:12:07.450Z,24.90
2018-08-19T13:14:35.590Z,25.00
2018-08-19T13:17:03.767Z,25.00
2018-08-19T13:19:32.052Z,25.10
2018-08-19T13:22:01.114Z,25.00
2018-08-19T13:24:34.810Z,25.10
2018-08-19T13:27:03.255Z,25.10
2018-08-19T13:29:31.943Z,25.10
2018-08-19T13:32:00.090Z,25.10
2018-08-19T13:34:28.699Z,25.10
2018-08-19T13:36:57.386Z,25.20
2018-08-19T13:39:26.030Z,25.20
2018-08-19T13:41:54.168Z,25.20
2018-08-19T13:44:22.310Z,25.20
2018-08-19T13:46:50.444Z,25.30
2018-08-19T13:49:23.362Z,25.30
2018-08-19T13:51:51.846Z,25.30
2018-08-19T13:54:20.751Z,25.30
2018-08-19T13:56:48.890Z,25.30
2018-08-19T13:59:17.500Z,25.30
2018-08-19T14:01:45.710Z,25.30
2018-08-19T14:04:13.863Z,25.30
2018-08-19T14:06:43.357Z,25.30
2018-08-19T14:09:12.046Z,25.40
2018-08-19T14:11:40.819Z,25.40
2018-08-19T14:14:09.709Z,25.40
2018-08-19T14:16:37.845Z,25.40
2018-08-19T14:19:06.281Z,25.40
2018-08-19T14:21:34.459Z,25.40
2018-08-19T14:24:03.182Z,25.40
2018-08-19T14:26:32.621Z,25.50
2018-08-19T14:29:00.818Z,25.50
2018-08-19T14:31:29.258Z,25.50
2018-08-19T14:33:57.437Z,25.50
2018-08-19T14:36:25.592Z,25.50
2018-08-19T14:38:53.733Z,25.50
2018-08-19T14:41:21.938Z,25.60
2018-08-19T14:44:03.983Z,25.60
2018-08-19T14:46:33.134Z,25.60
2018-08-19T14:49:03.405Z,25.60
2018-08-19T14:51:44.754Z,25.60
2018-08-19T14:54:16.821Z,25.60
2018-08-19T14:56:45.009Z,25.60
2018-08-19T14:59:14.130Z,25.60
2018-08-19T15:01:42.303Z,25.60
2018-08-19T15:04:12.286Z,25.60
2018-08-19T15:06:40.882Z,25.60
2018-08-19T15:09:22.267Z,25.60
2018-08-19T15:11:50.501Z,25.70
2018-08-19T15:14:19.758Z,25.60
2018-08-19T15:16:52.118Z,25.70
2018-08-19T15:19:20.329Z,25.70
2018-08-19T15:21:56.289Z,25.70
2018-08-19T15:24:25.069Z,25.70
2018-08-19T15:26:53.242Z,25.70
2018-08-19T15:29:28.658Z,25.70
2018-08-19T15:31:57.694Z,25.70
2018-08-19T15:34:25.699Z,25.80
2018-08-19T15:36:53.855Z,25.70
2018-08-19T15:39:22.007Z,25.70
2018-08-19T15:41:50.164Z,25.80
2018-08-19T15:44:18.317Z,25.80
2018-08-19T15:46:46.812Z,25.80
2018-08-19T15:49:14.969Z,25.80
2018-08-19T15:51:43.140Z,25.80
2018-08-19T15:54:11.406Z,25.80
2018-08-19T15:56:39.565Z,25.80
2018-08-19T15:59:08.981Z,25.80
2018-08-19T16:01:37.488Z,25.80
2018-08-19T16:04:12.157Z,25.80
2018-08-19T16:06:40.557Z,25.80
2018-08-19T16:09:10.894Z,25.70
2018-08-19T16:11:39.056Z,25.80
2018-08-19T16:14:14.013Z,25.70
2018-08-19T16:16:42.165Z,25.70
2018-08-19T16:19:10.327Z,25.70
2018-08-19T16:21:38.519Z,25.70
2018-08-19T16:24:06.997Z,25.70
2018-08-19T16:26:35.162Z,25.70
2018-08-19T16:29:03.527Z,25.70
2018-08-19T16:31:31.670Z,25.70
2018-08-19T16:33:59.951Z,25.70
2018-08-19T16:36:28.033Z,25.60
2018-08-19T16:38:56.454Z,25.60
2018-08-19T16:41:25.134Z,25.60
2018-08-19T16:43:53.543Z,25.60
2018-08-19T16:46:21.645Z,25.60
2018-08-19T16:48:49.878Z,25.60
2018-08-19T16:51:18.063Z,25.60
2018-08-19T16:53:46.223Z,25.60
2018-08-19T16:56:14.373Z,25.60
2018-08-19T16:58:42.518Z,25.60
2018-08-19T17:01:10.680Z,25.60
2018-08-19T17:03:39.830Z,25.50
2018-08-19T17:06:10.518Z,25.50
2018-08-19T17:08:39.241Z,25.50
2018-08-19T17:11:08.115Z,25.50
2018-08-19T17:13:36.379Z,25.50
2018-08-19T17:16:04.613Z,25.40
2018-08-19T17:18:32.751Z,25.40
2018-08-19T17:21:00.971Z,25.40
2018-08-19T17:23:29.212Z,25.40
2018-08-19T17:26:02.003Z,25.40
2018-08-19T17:28:30.142Z,25.40
2018-08-19T17:30:58.304Z,25.30
2018-08-19T17:33:29.091Z,25.30
2018-08-19T17:35:57.238Z,25.30
2018-08-19T17:38:32.085Z,25.30
2018-08-19T17:41:00.668Z,25.30
2018-08-19T17:43:34.297Z,25.20
2018-08-19T17:46:06.183Z,25.20
2018-08-19T17:48:35.153Z,25.20
2018-08-19T17:51:08.112Z,25.20
2018-08-19T17:53:36.307Z,25.10
2018-08-19T17:56:04.471Z,25.20
2018-08-19T17:58:32.629Z,25.10
2018-08-19T18:01:00.814Z,25.10
2018-08-19T18:03:28.994Z,25.10
2018-08-19T18:05:57.175Z,25.10
2018-08-19T18:08:25.338Z,25.10
2018-08-19T18:10:57.411Z,25.10
2018-08-19T18:13:26.365Z,25.00
2018-08-19T18:15:54.511Z,25.00
2018-08-19T18:18:22.768Z,25.00
2018-08-19T18:20:50.910Z,24.90
2018-08-19T18:23:27.744Z,24.90
2018-08-19T18:25:55.929Z,24.90
2018-08-19T18:28:25.410Z,24.90
2018-08-19T18:31:08.921Z,24.90
2018-08-19T18:33:59.590Z,24.80
2018-08-19T18:36:35.369Z,24.80
2018-08-19T18:39:05.097Z,24.80
2018-08-19T18:41:34.565Z,24.70
2018-08-19T18:44:05.003Z,24.70
2018-08-19T18:46:33.669Z,24.70
2018-08-19T18:49:19.245Z,24.60
2018-08-19T18:51:50.808Z,24.60
2018-08-19T18:54:32.400Z,24.60
2018-08-19T18:57:03.242Z,24.60
2018-08-19T18:59:31.390Z,24.60
2018-08-19T19:02:01.133Z,24.50
2018-08-19T19:04:29.308Z,24.50
2018-08-19T19:06:57.461Z,24.50
2018-08-19T19:09:29.899Z,24.40
2018-08-19T19:11:58.062Z,24.40
2018-08-19T19:14:26.183Z,24.40
2018-08-19T19:16:54.369Z,24.40
2018-08-19T19:19:22.533Z,24.30
2018-08-19T19:21:58.689Z,24.30
2018-08-19T19:24:35.969Z,24.30
2018-08-19T19:27:04.134Z,24.30
2018-08-19T19:29:32.289Z,24.20
2018-08-19T19:32:22.473Z,24.20
2018-08-19T19:34:50.593Z,24.20
2018-08-19T19:37:18.744Z,24.20
2018-08-19T19:39:50.145Z,24.10
2018-08-19T19:42:18.326Z,24.10
2018-08-19T19:44:46.462Z,24.10
2018-08-19T19:47:14.623Z,24.10
2018-08-19T19:49:48.970Z,24.10
2018-08-19T19:52:17.072Z,24.10
2018-08-19T19:54:45.194Z,24.10
2018-08-19T19:57:13.335Z,24.00
2018-08-19T19:59:41.505Z,24.00
2018-08-19T20:02:16.779Z,24.00
2018-08-19T20:04:45.174Z,24.00
2018-08-19T20:07:13.324Z,23.90
2018-08-19T20:09:41.919Z,23.90
2018-08-19T20:12:14.042Z,23.90
2018-08-19T20:14:46.506Z,23.90
2018-08-19T20:17:14.660Z,23.90
2018-08-19T20:19:42.854Z,23.90
2018-08-19T20:22:13.490Z,23.90
2018-08-19T20:24:41.654Z,23.80
2018-08-19T20:27:09.773Z,23.80
2018-08-19T20:29:37.931Z,23.80
2018-08-19T20:32:06.064Z,23.80
2018-08-19T20:34:34.200Z,23.80
2018-08-19T20:37:02.346Z,23.70
2018-08-19T20:39:30.488Z,23.70
2018-08-19T20:41:58.624Z,23.70
2018-08-19T20:44:26.765Z,23.70
2018-08-19T20:46:57.130Z,23.70
2018-08-19T20:49:26.301Z,23.70
2018-08-19T20:51:55.235Z,23.70
2018-08-19T20:54:23.467Z,23.70
2018-08-19T20:56:51.609Z,23.70
2018-08-19T20:59:25.898Z,23.60
2018-08-19T21:01:54.261Z,23.60
2018-08-19T21:04:22.430Z,23.60
2018-08-19T21:06:50.618Z,23.60
2018-08-19T21:09:18.809Z,23.60
2018-08-19T21:11:46.977Z,23.60
2018-08-19T21:14:15.156Z,23.50
2018-08-19T21:16:43.445Z,23.60
2018-08-19T21:19:11.597Z,23.50
2018-08-19T21:21:39.740Z,23.50
2018-08-19T21:24:07.907Z,23.50
2018-08-19T21:26:36.057Z,23.50
2018-08-19T21:29:04.661Z,23.50
2018-08-19T21:31:33.858Z,23.50
2018-08-19T21:34:02.017Z,23.50
2018-08-19T21:36:30.172Z,23.50
2018-08-19T21:38:58.351Z,23.40
2018-08-19T21:41:44.218Z,23.50
2018-08-19T21:44:12.507Z,23.50
2018-08-19T21:46:40.663Z,23.40
2018-08-19T21:49:08.910Z,23.40
2018-08-19T21:51:37.066Z,23.40
2018-08-19T21:54:05.725Z,23.40
2018-08-19T21:56:33.891Z,23.40
2018-08-19T21:59:03.501Z,23.40
2018-08-19T22:01:34.419Z,23.40
2018-08-19T22:04:02.586Z,23.40
2018-08-19T22:06:30.726Z,23.40
2018-08-19T22:08:58.878Z,23.40
2018-08-19T22:11:27.046Z,23.40
2018-08-19T22:13:55.225Z,23.40
2018-08-19T22:16:23.380Z,23.40
2018-08-19T22:18:51.569Z,23.40
2018-08-19T22:21:21.166Z,23.40
2018-08-19T22:23:50.513Z,23.40
2018-08-19T22:26:19.684Z,23.40
2018-08-19T22:29:02.182Z,23.30
2018-08-19T22:31:30.330Z,23.30
2018-08-19T22:33:58.767Z,23.30
2018-08-19T22:36:26.973Z,23.30
2018-08-19T22:38:56.028Z,23.30
2018-08-19T22:41:28.596Z,23.30
2018-08-19T22:43:57.395Z,23.30
2018-08-19T22:46:26.338Z,23.30
2018-08-19T22:48:55.077Z,23.30
2018-08-19T22:51:23.221Z,23.30
2018-08-19T22:53:53.750Z,23.30
2018-08-19T22:56:22.546Z,23.30
2018-08-19T22:58:50.742Z,23.30
2018-08-19T23:01:18.909Z,23.20
2018-08-19T23:03:47.185Z,23.30
2018-08-19T23:06:15.337Z,23.20
2018-08-19T23:08:43.515Z,23.20
2018-08-19T23:11:11.682Z,23.20
2018-08-19T23:13:51.414Z,23.20
2018-08-19T23:16:21.819Z,23.20
2018-08-19T23:18:49.979Z,23.20
2018-08-19T23:21:18.159Z,23.20
2018-08-19T23:23:46.319Z,23.20
2018-08-19T23:26:14.473Z,23.20
2018-08-19T23:28:42.637Z,23.20
2018-08-19T23:31:10.798Z,23.20
2018-08-19T23:33:38.971Z,23.20
2018-08-19T23:36:07.313Z,23.20
2018-08-19T23:38:35.457Z,23.10
2018-08-19T23:41:03.614Z,23.20
2018-08-19T23:43:31.776Z,23.20
2018-08-19T23:45:59.930Z,23.10
2018-08-19T23:48:28.081Z,23.20
2018-08-19T23:50:56.262Z,23.20
2018-08-19T23:53:24.427Z,23.20
2018-08-19T23:55:52.587Z,23.10
2018-08-19T23:58:20.739Z,23.10
